sensor_id;sensor_type;location;lat;lon;timestamp;pressure;altitude;pressure_sealevel;temperature;humidity
62420;BME280;48460;51.616;5.426;2023-05-23T00:01:32;101738.03;;;14.95;100.00
62420;BME280;48460;51.616;5.426;2023-05-23T00:03:57;101729.22;;;14.94;100.00
62420;BME280;48460;51.616;5.426;2023-05-23T00:06:23;101725.72;;;14.94;100.00
62420;BME280;48460;51.616;5.426;2023-05-23T00:08:48;101731.19;;;14.91;100.00
62420;BME280;48460;51.616;5.426;2023-05-23T00:11:15;101729.41;;;14.91;100.00
62420;BME280;48460;51.616;5.426;2023-05-23T00:13:41;101735.72;;;14.89;100.00
62420;BME280;48460;51.616;5.426;2023-05-23T00:16:08;101729.75;;;14.85;100.00
62420;BME280;48460;51.616;5.426;2023-05-23T00:18:37;101728.91;;;14.85;100.00
62420;BME280;48460;51.616;5.426;2023-05-23T00:21:04;101732.63;;;14.80;100.00
62420;BME280;48460;51.616;5.426;2023-05-23T00:23:32;101734.94;;;14.71;100.00
62420;BME280;48460;51.616;5.426;2023-05-23T00:25:58;101733.16;;;14.71;100.00
62420;BME280;48460;51.616;5.426;2023-05-23T00:28:24;101735.28;;;14.65;100.00
62420;BME280;48460;51.616;5.426;2023-05-23T00:30:50;101734.34;;;14.66;100.00
62420;BME280;48460;51.616;5.426;2023-05-23T00:33:16;101738.78;;;14.65;100.00
62420;BME280;48460;51.616;5.426;2023-05-23T00:35:42;101748.94;;;14.57;100.00
62420;BME280;48460;51.616;5.426;2023-05-23T00:38:08;101754.16;;;14.58;100.00
62420;BME280;48460;51.616;5.426;2023-05-23T00:40:35;101752.53;;;14.56;100.00
62420;BME280;48460;51.616;5.426;2023-05-23T00:43:09;101758.78;;;14.55;100.00
62420;BME280;48460;51.616;5.426;2023-05-23T00:45:38;101754.38;;;14.54;100.00
62420;BME280;48460;51.616;5.426;2023-05-23T00:48:05;101761.41;;;14.55;100.00
62420;BME280;48460;51.616;5.426;2023-05-23T00:50:32;101757.28;;;14.49;100.00
62420;BME280;48460;51.616;5.426;2023-05-23T00:52:59;101758.97;;;14.50;100.00
62420;BME280;48460;51.616;5.426;2023-05-23T00:55:25;101765.38;;;14.46;100.00
62420;BME280;48460;51.616;5.426;2023-05-23T00:57:56;101765.22;;;14.49;100.00
62420;BME280;48460;51.616;5.426;2023-05-23T01:00:24;101755.63;;;14.47;100.00
62420;BME280;48460;51.616;5.426;2023-05-23T01:02:50;101759.28;;;14.44;100.00
62420;BME280;48460;51.616;5.426;2023-05-23T01:05:16;101765.78;;;14.39;100.00
62420;BME280;48460;51.616;5.426;2023-05-23T01:07:47;101773.66;;;14.40;100.00
62420;BME280;48460;51.616;5.426;2023-05-23T01:10:14;101768.84;;;14.31;100.00
62420;BME280;48460;51.616;5.426;2023-05-23T01:13:05;101774.88;;;14.33;100.00
62420;BME280;48460;51.616;5.426;2023-05-23T01:15:55;101778.47;;;14.32;100.00
62420;BME280;48460;51.616;5.426;2023-05-23T01:18:36;101774.13;;;14.31;100.00
62420;BME280;48460;51.616;5.426;2023-05-23T01:21:10;101782.81;;;14.33;100.00
62420;BME280;48460;51.616;5.426;2023-05-23T01:29:10;101774.59;;;14.22;100.00
62420;BME280;48460;51.616;5.426;2023-05-23T01:31:45;101787.75;;;14.23;100.00
62420;BME280;48460;51.616;5.426;2023-05-23T01:34:13;101783.72;;;14.16;100.00
62420;BME280;48460;51.616;5.426;2023-05-23T01:36:43;101785.81;;;14.09;100.00
62420;BME280;48460;51.616;5.426;2023-05-23T01:39:10;101796.16;;;14.14;100.00
62420;BME280;48460;51.616;5.426;2023-05-23T01:41:36;101789.34;;;14.10;100.00
62420;BME280;48460;51.616;5.426;2023-05-23T01:44:02;101786.75;;;14.08;100.00
62420;BME280;48460;51.616;5.426;2023-05-23T01:46:29;101785.38;;;14.01;100.00
62420;BME280;48460;51.616;5.426;2023-05-23T01:48:57;101781.94;;;13.99;100.00
62420;BME280;48460;51.616;5.426;2023-05-23T01:51:23;101789.78;;;14.01;100.00
62420;BME280;48460;51.616;5.426;2023-05-23T01:53:49;101794.84;;;13.88;100.00
62420;BME280;48460;51.616;5.426;2023-05-23T01:56:15;101791.13;;;13.92;100.00
62420;BME280;48460;51.616;5.426;2023-05-23T01:58:41;101791.41;;;13.86;100.00
62420;BME280;48460;51.616;5.426;2023-05-23T02:01:08;101806.44;;;13.85;100.00
62420;BME280;48460;51.616;5.426;2023-05-23T02:03:34;101798.59;;;13.84;100.00
62420;BME280;48460;51.616;5.426;2023-05-23T02:05:59;101816.16;;;13.85;100.00
62420;BME280;48460;51.616;5.426;2023-05-23T02:08:25;101806.44;;;13.85;100.00
62420;BME280;48460;51.616;5.426;2023-05-23T02:10:50;101815.22;;;13.86;100.00
62420;BME280;48460;51.616;5.426;2023-05-23T02:13:16;101813.44;;;13.86;100.00
62420;BME280;48460;51.616;5.426;2023-05-23T02:15:41;101808.91;;;13.88;100.00
62420;BME280;48460;51.616;5.426;2023-05-23T02:18:07;101817.69;;;13.89;100.00
62420;BME280;48460;51.616;5.426;2023-05-23T02:20:32;101821.38;;;13.86;100.00
62420;BME280;48460;51.616;5.426;2023-05-23T02:23:00;101819.50;;;13.88;100.00
62420;BME280;48460;51.616;5.426;2023-05-23T02:25:25;101826.41;;;13.91;100.00
62420;BME280;48460;51.616;5.426;2023-05-23T02:27:51;101826.34;;;13.93;100.00
62420;BME280;48460;51.616;5.426;2023-05-23T02:30:19;101826.28;;;13.94;100.00
62420;BME280;48460;51.616;5.426;2023-05-23T02:32:44;101823.41;;;13.99;100.00
62420;BME280;48460;51.616;5.426;2023-05-23T02:35:11;101824.16;;;14.01;100.00
62420;BME280;48460;51.616;5.426;2023-05-23T02:37:36;101817.97;;;14.02;100.00
62420;BME280;48460;51.616;5.426;2023-05-23T02:40:02;101816.06;;;14.04;100.00
62420;BME280;48460;51.616;5.426;2023-05-23T02:42:28;101823.94;;;14.05;100.00
62420;BME280;48460;51.616;5.426;2023-05-23T02:44:56;101817.09;;;14.01;100.00
62420;BME280;48460;51.616;5.426;2023-05-23T02:47:21;101820.06;;;13.95;100.00
62420;BME280;48460;51.616;5.426;2023-05-23T02:49:47;101824.56;;;13.93;100.00
62420;BME280;48460;51.616;5.426;2023-05-23T02:52:12;101827.13;;;13.95;100.00
62420;BME280;48460;51.616;5.426;2023-05-23T02:54:38;101820.91;;;13.96;100.00
62420;BME280;48460;51.616;5.426;2023-05-23T02:57:06;101823.72;;;13.93;100.00
62420;BME280;48460;51.616;5.426;2023-05-23T02:59:31;101824.63;;;13.91;100.00
62420;BME280;48460;51.616;5.426;2023-05-23T03:01:56;101823.78;;;13.91;100.00
62420;BME280;48460;51.616;5.426;2023-05-23T03:04:22;101823.09;;;13.87;100.00
62420;BME280;48460;51.616;5.426;2023-05-23T03:06:50;101828.44;;;13.86;100.00
62420;BME280;48460;51.616;5.426;2023-05-23T03:09:18;101828.59;;;13.83;100.00
62420;BME280;48460;51.616;5.426;2023-05-23T03:11:44;101825.41;;;13.76;100.00
62420;BME280;48460;51.616;5.426;2023-05-23T03:14:10;101822.06;;;13.73;100.00
62420;BME280;48460;51.616;5.426;2023-05-23T03:16:36;101828.13;;;13.75;100.00
62420;BME280;48460;51.616;5.426;2023-05-23T03:19:01;101821.91;;;13.76;100.00
62420;BME280;48460;51.616;5.426;2023-05-23T03:21:27;101826.41;;;13.74;100.00
62420;BME280;48460;51.616;5.426;2023-05-23T03:23:52;101822.59;;;13.79;100.00
62420;BME280;48460;51.616;5.426;2023-05-23T03:26:18;101827.03;;;13.79;100.00
62420;BME280;48460;51.616;5.426;2023-05-23T03:28:43;101826.09;;;13.80;100.00
62420;BME280;48460;51.616;5.426;2023-05-23T03:31:09;101834.91;;;13.80;100.00
62420;BME280;48460;51.616;5.426;2023-05-23T03:33:37;101830.53;;;13.79;100.00
62420;BME280;48460;51.616;5.426;2023-05-23T03:36:02;101827.97;;;13.78;100.00
62420;BME280;48460;51.616;5.426;2023-05-23T03:38:28;101832.41;;;13.77;100.00
62420;BME280;48460;51.616;5.426;2023-05-23T03:40:53;101829.84;;;13.76;100.00
62420;BME280;48460;51.616;5.426;2023-05-23T03:43:19;101829.69;;;13.79;100.00
62420;BME280;48460;51.616;5.426;2023-05-23T03:45:44;101833.13;;;13.81;100.00
62420;BME280;48460;51.616;5.426;2023-05-23T03:48:10;101838.47;;;13.79;100.00
62420;BME280;48460;51.616;5.426;2023-05-23T03:50:36;101842.75;;;13.82;100.00
62420;BME280;48460;51.616;5.426;2023-05-23T03:53:02;101834.03;;;13.80;100.00
62420;BME280;48460;51.616;5.426;2023-05-23T03:55:27;101840.25;;;13.79;100.00
62420;BME280;48460;51.616;5.426;2023-05-23T03:57:56;101843.84;;;13.78;100.00
62420;BME280;48460;51.616;5.426;2023-05-23T04:00:21;101840.25;;;13.79;100.00
62420;BME280;48460;51.616;5.426;2023-05-23T04:02:48;101843.53;;;13.84;100.00
62420;BME280;48460;51.616;5.426;2023-05-23T04:05:15;101851.47;;;13.84;100.00
62420;BME280;48460;51.616;5.426;2023-05-23T04:07:42;101851.63;;;13.81;100.00
62420;BME280;48460;51.616;5.426;2023-05-23T04:10:08;101851.47;;;13.84;100.00
62420;BME280;48460;51.616;5.426;2023-05-23T04:12:34;101842.84;;;13.80;100.00
62420;BME280;48460;51.616;5.426;2023-05-23T04:14:59;101848.19;;;13.79;100.00
62420;BME280;48460;51.616;5.426;2023-05-23T04:17:25;101857.81;;;13.80;100.00
62420;BME280;48460;51.616;5.426;2023-05-23T04:19:54;101856.81;;;13.82;100.00
62420;BME280;48460;51.616;5.426;2023-05-23T04:22:20;101853.41;;;13.80;100.00
62420;BME280;48460;51.616;5.426;2023-05-23T04:24:45;101861.41;;;13.79;100.00
62420;BME280;48460;51.616;5.426;2023-05-23T04:27:11;101864.91;;;13.79;100.00
62420;BME280;48460;51.616;5.426;2023-05-23T04:29:38;101867.50;;;13.81;100.00
62420;BME280;48460;51.616;5.426;2023-05-23T04:32:04;101868.41;;;13.80;100.00
62420;BME280;48460;51.616;5.426;2023-05-23T04:34:30;101866.69;;;13.79;100.00
62420;BME280;48460;51.616;5.426;2023-05-23T04:36:59;101880.84;;;13.78;100.00
62420;BME280;48460;51.616;5.426;2023-05-23T04:39:26;101873.78;;;13.78;100.00
62420;BME280;48460;51.616;5.426;2023-05-23T04:41:51;101879.22;;;13.75;100.00
62420;BME280;48460;51.616;5.426;2023-05-23T04:44:18;101882.56;;;13.79;100.00
62420;BME280;48460;51.616;5.426;2023-05-23T04:46:44;101891.50;;;13.76;100.00
62420;BME280;48460;51.616;5.426;2023-05-23T04:49:12;101888.84;;;13.76;100.00
62420;BME280;48460;51.616;5.426;2023-05-23T04:51:38;101895.94;;;13.76;100.00
62420;BME280;48460;51.616;5.426;2023-05-23T04:54:04;101892.72;;;13.69;100.00
62420;BME280;48460;51.616;5.426;2023-05-23T04:56:29;101905.88;;;13.71;100.00
62420;BME280;48460;51.616;5.426;2023-05-23T04:58:56;101904.22;;;13.68;100.00
62420;BME280;48460;51.616;5.426;2023-05-23T05:01:24;101904.50;;;13.62;100.00
62420;BME280;48460;51.616;5.426;2023-05-23T05:03:50;101895.88;;;13.58;100.00
62420;BME280;48460;51.616;5.426;2023-05-23T05:06:18;101907.53;;;13.54;100.00
62420;BME280;48460;51.616;5.426;2023-05-23T05:08:45;101908.53;;;13.52;100.00
62420;BME280;48460;51.616;5.426;2023-05-23T05:11:11;101908.69;;;13.49;100.00
62420;BME280;48460;51.616;5.426;2023-05-23T05:13:36;101910.63;;;13.45;100.00
62420;BME280;48460;51.616;5.426;2023-05-23T05:16:01;101914.75;;;13.51;100.00
62420;BME280;48460;51.616;5.426;2023-05-23T05:18:29;101917.31;;;13.52;100.00
62420;BME280;48460;51.616;5.426;2023-05-23T05:20:54;101922.69;;;13.51;100.00
62420;BME280;48460;51.616;5.426;2023-05-23T05:23:24;101924.44;;;13.50;100.00
62420;BME280;48460;51.616;5.426;2023-05-23T05:25:50;101924.53;;;13.49;100.00
62420;BME280;48460;51.616;5.426;2023-05-23T05:28:17;101930.31;;;13.57;100.00
62420;BME280;48460;51.616;5.426;2023-05-23T05:30:44;101936.75;;;13.51;100.00
62420;BME280;48460;51.616;5.426;2023-05-23T05:33:20;101930.69;;;13.49;100.00
62420;BME280;48460;51.616;5.426;2023-05-23T05:35:55;101931.63;;;13.48;100.00
62420;BME280;48460;51.616;5.426;2023-05-23T05:38:22;101936.91;;;13.48;100.00
62420;BME280;48460;51.616;5.426;2023-05-23T05:40:47;101947.31;;;13.51;100.00
62420;BME280;48460;51.616;5.426;2023-05-23T05:43:14;101946.75;;;13.44;100.00
62420;BME280;48460;51.616;5.426;2023-05-23T05:45:40;101941.66;;;13.40;100.00
62420;BME280;48460;51.616;5.426;2023-05-23T05:48:07;101961.25;;;13.36;100.00
62420;BME280;48460;51.616;5.426;2023-05-23T05:50:32;101955.38;;;13.29;100.00
62420;BME280;48460;51.616;5.426;2023-05-23T05:52:58;101959.19;;;13.22;100.00
62420;BME280;48460;51.616;5.426;2023-05-23T05:55:25;101967.97;;;13.22;100.00
62420;BME280;48460;51.616;5.426;2023-05-23T05:57:52;101972.88;;;13.11;100.00
62420;BME280;48460;51.616;5.426;2023-05-23T06:00:24;101973.75;;;13.12;100.00
62420;BME280;48460;51.616;5.426;2023-05-23T06:02:50;101975.66;;;13.08;100.00
62420;BME280;48460;51.616;5.426;2023-05-23T06:05:19;101966.00;;;13.07;100.00
62420;BME280;48460;51.616;5.426;2023-05-23T06:07:48;101973.00;;;13.08;100.00
62420;BME280;48460;51.616;5.426;2023-05-23T06:10:15;101975.00;;;13.03;100.00
62420;BME280;48460;51.616;5.426;2023-05-23T06:12:49;101982.28;;;12.98;100.00
62420;BME280;48460;51.616;5.426;2023-05-23T06:22:08;101989.25;;;12.99;100.00
62420;BME280;48460;51.616;5.426;2023-05-23T06:24:33;101990.31;;;12.95;100.00
62420;BME280;48460;51.616;5.426;2023-05-23T06:26:59;101995.75;;;12.92;100.00
62420;BME280;48460;51.616;5.426;2023-05-23T06:30:00;102006.56;;;12.86;100.00
62420;BME280;48460;51.616;5.426;2023-05-23T06:32:25;102003.94;;;12.86;100.00
62420;BME280;48460;51.616;5.426;2023-05-23T06:34:51;102004.06;;;12.83;100.00
62420;BME280;48460;51.616;5.426;2023-05-23T06:37:16;102008.63;;;12.79;100.00
62420;BME280;48460;51.616;5.426;2023-05-23T06:39:42;102009.47;;;12.80;100.00
62420;BME280;48460;51.616;5.426;2023-05-23T06:42:08;102011.38;;;12.76;100.00
62420;BME280;48460;51.616;5.426;2023-05-23T06:44:36;102025.50;;;12.75;100.00
62420;BME280;48460;51.616;5.426;2023-05-23T06:47:02;102016.03;;;12.69;100.00
62420;BME280;48460;51.616;5.426;2023-05-23T06:49:29;102024.91;;;12.68;100.00
62420;BME280;48460;51.616;5.426;2023-05-23T06:51:55;102024.69;;;12.73;100.00
62420;BME280;48460;51.616;5.426;2023-05-23T06:54:20;102024.63;;;12.74;100.00
62420;BME280;48460;51.616;5.426;2023-05-23T06:56:46;102021.81;;;12.79;100.00
62420;BME280;48460;51.616;5.426;2023-05-23T06:59:11;102033.75;;;12.88;100.00
62420;BME280;48460;51.616;5.426;2023-05-23T07:01:36;102042.91;;;12.99;100.00
62420;BME280;48460;51.616;5.426;2023-05-23T07:04:02;102032.84;;;13.09;100.00
62420;BME280;48460;51.616;5.426;2023-05-23T07:06:28;102041.25;;;13.17;100.00
62420;BME280;48460;51.616;5.426;2023-05-23T07:08:56;102036.53;;;13.26;98.93
62420;BME280;48460;51.616;5.426;2023-05-23T07:11:21;102045.06;;;13.32;97.70
62420;BME280;48460;51.616;5.426;2023-05-23T07:13:47;102041.88;;;13.44;97.19
62420;BME280;48460;51.616;5.426;2023-05-23T07:16:12;102057.63;;;13.66;95.73
62420;BME280;48460;51.616;5.426;2023-05-23T07:18:38;102048.84;;;13.85;95.21
62420;BME280;48460;51.616;5.426;2023-05-23T07:21:03;102060.63;;;13.97;92.91
62420;BME280;48460;51.616;5.426;2023-05-23T07:23:31;102062.28;;;13.99;92.54
62420;BME280;48460;51.616;5.426;2023-05-23T07:26:00;102062.78;;;14.07;92.45
62420;BME280;48460;51.616;5.426;2023-05-23T07:28:27;102065.06;;;14.15;92.30
62420;BME280;48460;51.616;5.426;2023-05-23T07:30:52;102062.97;;;14.22;89.14
62420;BME280;48460;51.616;5.426;2023-05-23T07:33:18;102061.97;;;14.24;88.65
62420;BME280;48460;51.616;5.426;2023-05-23T07:35:43;102068.75;;;14.30;89.04
62420;BME280;48460;51.616;5.426;2023-05-23T07:38:09;102071.50;;;14.28;87.23
62420;BME280;48460;51.616;5.426;2023-05-23T07:40:34;102077.84;;;14.24;87.59
62420;BME280;48460;51.616;5.426;2023-05-23T07:43:00;102076.19;;;14.22;88.09
62420;BME280;48460;51.616;5.426;2023-05-23T07:45:28;102076.84;;;14.27;88.09
62420;BME280;48460;51.616;5.426;2023-05-23T07:47:53;102083.88;;;14.28;86.71
62420;BME280;48460;51.616;5.426;2023-05-23T07:50:19;102077.69;;;14.27;87.22
62420;BME280;48460;51.616;5.426;2023-05-23T07:52:45;102076.78;;;14.28;88.24
62420;BME280;48460;51.616;5.426;2023-05-23T07:55:10;102074.63;;;14.36;88.16
62420;BME280;48460;51.616;5.426;2023-05-23T07:57:36;102075.50;;;14.37;86.70
62420;BME280;48460;51.616;5.426;2023-05-23T08:00:02;102084.50;;;14.33;86.89
62420;BME280;48460;51.616;5.426;2023-05-23T08:02:29;102081.22;;;14.28;87.66
62420;BME280;48460;51.616;5.426;2023-05-23T08:04:54;102079.00;;;14.19;88.31
62420;BME280;48460;51.616;5.426;2023-05-23T08:07:22;102087.97;;;14.16;88.96
62420;BME280;48460;51.616;5.426;2023-05-23T08:09:47;102083.88;;;14.09;88.92
62420;BME280;48460;51.616;5.426;2023-05-23T08:12:13;102089.44;;;14.03;89.00
62420;BME280;48460;51.616;5.426;2023-05-23T08:14:38;102093.94;;;14.01;89.79
62420;BME280;48460;51.616;5.426;2023-05-23T08:17:04;102094.75;;;14.03;91.34
62420;BME280;48460;51.616;5.426;2023-05-23T08:19:31;102093.59;;;14.08;90.25
62420;BME280;48460;51.616;5.426;2023-05-23T08:21:57;102092.47;;;14.14;89.53
62420;BME280;48460;51.616;5.426;2023-05-23T08:24:22;102088.25;;;14.10;89.90
62420;BME280;48460;51.616;5.426;2023-05-23T08:26:50;102103.38;;;14.06;90.44
62420;BME280;48460;51.616;5.426;2023-05-23T08:29:15;102101.03;;;14.00;90.50
62420;BME280;48460;51.616;5.426;2023-05-23T08:31:41;102098.59;;;13.96;91.47
62420;BME280;48460;51.616;5.426;2023-05-23T08:34:09;102099.22;;;14.01;93.09
62420;BME280;48460;51.616;5.426;2023-05-23T08:36:35;102098.88;;;14.08;91.56
62420;BME280;48460;51.616;5.426;2023-05-23T08:39:01;102096.69;;;13.99;92.46
62420;BME280;48460;51.616;5.426;2023-05-23T08:41:31;102094.09;;;13.98;93.45
62420;BME280;48460;51.616;5.426;2023-05-23T08:43:56;102098.09;;;13.87;93.42
62420;BME280;48460;51.616;5.426;2023-05-23T08:46:22;102096.44;;;13.85;95.58
62420;BME280;48460;51.616;5.426;2023-05-23T08:48:53;102112.81;;;13.93;96.00
62420;BME280;48460;51.616;5.426;2023-05-23T08:51:24;102107.69;;;14.09;94.52
62420;BME280;48460;51.616;5.426;2023-05-23T08:53:50;102103.81;;;14.35;94.70
62420;BME280;48460;51.616;5.426;2023-05-23T08:56:18;102106.09;;;14.62;91.93
62420;BME280;48460;51.616;5.426;2023-05-23T08:58:44;102109.28;;;14.68;89.99
62420;BME280;48460;51.616;5.426;2023-05-23T09:01:12;102109.25;;;14.70;89.45
62420;BME280;48460;51.616;5.426;2023-05-23T09:03:38;102114.09;;;14.60;89.96
62420;BME280;48460;51.616;5.426;2023-05-23T09:06:08;102130.28;;;14.54;91.04
62420;BME280;48460;51.616;5.426;2023-05-23T09:08:36;102127.91;;;14.48;89.03
62420;BME280;48460;51.616;5.426;2023-05-23T09:11:06;102135.44;;;14.57;89.88
62420;BME280;48460;51.616;5.426;2023-05-23T09:13:33;102124.81;;;14.76;88.30
62420;BME280;48460;51.616;5.426;2023-05-23T09:18:38;102128.13;;;15.16;85.48
62420;BME280;48460;51.616;5.426;2023-05-23T09:21:06;102129.44;;;15.24;83.88
62420;BME280;48460;51.616;5.426;2023-05-23T09:23:35;102119.53;;;15.28;83.17
62420;BME280;48460;51.616;5.426;2023-05-23T09:26:06;102126.31;;;15.34;82.39
62420;BME280;48460;51.616;5.426;2023-05-23T09:28:32;102131.63;;;15.34;82.01
62420;BME280;48460;51.616;5.426;2023-05-23T09:31:03;102134.75;;;15.42;82.43
62420;BME280;48460;51.616;5.426;2023-05-23T09:33:48;102134.81;;;15.40;80.75
62420;BME280;48460;51.616;5.426;2023-05-23T09:36:15;102139.94;;;15.43;78.03
62420;BME280;48460;51.616;5.426;2023-05-23T09:38:44;102135.28;;;15.48;78.56
62420;BME280;48460;51.616;5.426;2023-05-23T09:41:10;102142.75;;;15.58;76.47
62420;BME280;48460;51.616;5.426;2023-05-23T09:43:48;102144.88;;;15.68;76.50
62420;BME280;48460;51.616;5.426;2023-05-23T09:46:14;102138.41;;;15.74;74.95
62420;BME280;48460;51.616;5.426;2023-05-23T09:48:45;102145.19;;;15.80;74.30
62420;BME280;48460;51.616;5.426;2023-05-23T09:51:11;102153.56;;;15.88;72.07
62420;BME280;48460;51.616;5.426;2023-05-23T09:53:36;102143.19;;;16.32;72.45
62420;BME280;48460;51.616;5.426;2023-05-23T09:56:02;102142.34;;;16.79;70.45
62420;BME280;48460;51.616;5.426;2023-05-23T09:58:32;102138.56;;;16.99;68.15
62420;BME280;48460;51.616;5.426;2023-05-23T10:00:59;102138.16;;;17.36;65.68
62420;BME280;48460;51.616;5.426;2023-05-23T10:03:38;102142.84;;;17.46;66.13
62420;BME280;48460;51.616;5.426;2023-05-23T10:06:15;102142.69;;;17.49;65.82
62420;BME280;48460;51.616;5.426;2023-05-23T10:14:04;102133.31;;;18.57;58.85
62420;BME280;48460;51.616;5.426;2023-05-23T10:19:30;102135.06;;;19.63;57.10
62420;BME280;48460;51.616;5.426;2023-05-23T10:22:00;102136.31;;;19.32;55.46
62420;BME280;48460;51.616;5.426;2023-05-23T10:24:28;102148.59;;;18.95;55.92
62420;BME280;48460;51.616;5.426;2023-05-23T10:26:53;102148.97;;;18.61;56.23
62420;BME280;48460;51.616;5.426;2023-05-23T10:29:22;102155.31;;;18.87;54.77
62420;BME280;48460;51.616;5.426;2023-05-23T10:31:49;102161.56;;;18.59;54.65
62420;BME280;48460;51.616;5.426;2023-05-23T10:34:39;102154.28;;;18.76;54.89
62420;BME280;48460;51.616;5.426;2023-05-23T10:37:06;102149.22;;;19.25;53.60
62420;BME280;48460;51.616;5.426;2023-05-23T10:39:48;102146.91;;;19.97;53.03
62420;BME280;48460;51.616;5.426;2023-05-23T10:45:16;102144.72;;;21.48;51.62
62420;BME280;48460;51.616;5.426;2023-05-23T10:47:42;102150.22;;;22.14;49.72
62420;BME280;48460;51.616;5.426;2023-05-23T10:50:11;102147.28;;;22.06;47.05
62420;BME280;48460;51.616;5.426;2023-05-23T10:52:49;102147.78;;;21.89;46.16
62420;BME280;48460;51.616;5.426;2023-05-23T10:55:19;102150.03;;;21.37;45.55
62420;BME280;48460;51.616;5.426;2023-05-23T10:58:17;102145.66;;;21.47;48.10
62420;BME280;48460;51.616;5.426;2023-05-23T11:00:58;102144.09;;;21.56;47.37
62420;BME280;48460;51.616;5.426;2023-05-23T11:03:59;102146.66;;;21.57;45.02
62420;BME280;48460;51.616;5.426;2023-05-23T11:06:38;102150.44;;;21.89;45.90
62420;BME280;48460;51.616;5.426;2023-05-23T11:09:10;102146.69;;;21.69;43.27
62420;BME280;48460;51.616;5.426;2023-05-23T11:19:58;102137.41;;;22.72;42.05
62420;BME280;48460;51.616;5.426;2023-05-23T11:22:27;102134.72;;;23.16;41.60
62420;BME280;48460;51.616;5.426;2023-05-23T11:24:55;102129.22;;;22.96;41.58
62420;BME280;48460;51.616;5.426;2023-05-23T11:30:03;102145.81;;;22.47;41.69
62420;BME280;48460;51.616;5.426;2023-05-23T11:32:39;102150.84;;;22.72;40.24
62420;BME280;48460;51.616;5.426;2023-05-23T11:35:07;102150.03;;;22.93;40.29
62420;BME280;48460;51.616;5.426;2023-05-23T11:37:37;102153.47;;;22.84;39.75
62420;BME280;48460;51.616;5.426;2023-05-23T11:40:26;102154.09;;;23.19;41.40
62420;BME280;48460;51.616;5.426;2023-05-23T11:42:53;102150.09;;;23.35;38.52
62420;BME280;48460;51.616;5.426;2023-05-23T11:45:19;102144.91;;;23.01;39.51
62420;BME280;48460;51.616;5.426;2023-05-23T11:47:45;102144.94;;;22.58;40.29
62420;BME280;48460;51.616;5.426;2023-05-23T11:50:11;102158.53;;;22.22;42.35
62420;BME280;48460;51.616;5.426;2023-05-23T11:52:37;102163.94;;;22.55;41.63
62420;BME280;48460;51.616;5.426;2023-05-23T11:55:02;102154.34;;;22.41;42.41
62420;BME280;48460;51.616;5.426;2023-05-23T11:57:31;102168.72;;;22.06;42.18
62420;BME280;48460;51.616;5.426;2023-05-23T11:59:57;102156.06;;;22.30;40.87
62420;BME280;48460;51.616;5.426;2023-05-23T12:02:26;102157.84;;;22.96;41.15
62420;BME280;48460;51.616;5.426;2023-05-23T12:04:54;102149.13;;;23.15;40.03
62420;BME280;48460;51.616;5.426;2023-05-23T12:07:22;102164.84;;;22.33;39.63
62420;BME280;48460;51.616;5.426;2023-05-23T12:09:48;102158.38;;;21.90;40.75
62420;BME280;48460;51.616;5.426;2023-05-23T12:12:16;102167.13;;;21.81;42.23
62420;BME280;48460;51.616;5.426;2023-05-23T12:14:42;102167.00;;;21.60;42.43
62420;BME280;48460;51.616;5.426;2023-05-23T12:17:11;102170.72;;;21.11;43.03
62420;BME280;48460;51.616;5.426;2023-05-23T12:19:38;102179.81;;;20.84;42.76
62420;BME280;48460;51.616;5.426;2023-05-23T12:22:07;102174.03;;;21.26;43.26
62420;BME280;48460;51.616;5.426;2023-05-23T12:24:32;102165.28;;;21.70;41.75
62420;BME280;48460;51.616;5.426;2023-05-23T12:26:59;102179.19;;;21.87;41.01
62420;BME280;48460;51.616;5.426;2023-05-23T12:29:33;102186.59;;;21.83;40.55
62420;BME280;48460;51.616;5.426;2023-05-23T12:32:06;102179.19;;;21.75;40.93
62420;BME280;48460;51.616;5.426;2023-05-23T12:34:32;102180.19;;;22.30;39.29
62420;BME280;48460;51.616;5.426;2023-05-23T12:36:59;102181.56;;;22.68;37.87
62420;BME280;48460;51.616;5.426;2023-05-23T12:39:29;102184.56;;;22.86;36.33
62420;BME280;48460;51.616;5.426;2023-05-23T12:42:06;102179.44;;;23.27;36.80
62420;BME280;48460;51.616;5.426;2023-05-23T12:44:32;102182.41;;;22.80;36.62
62420;BME280;48460;51.616;5.426;2023-05-23T12:46:58;102184.03;;;22.60;36.23
62420;BME280;48460;51.616;5.426;2023-05-23T12:49:24;102188.47;;;22.93;36.91
62420;BME280;48460;51.616;5.426;2023-05-23T12:51:50;102192.19;;;23.13;37.08
62420;BME280;48460;51.616;5.426;2023-05-23T12:54:18;102181.53;;;23.23;37.40
62420;BME280;48460;51.616;5.426;2023-05-23T12:56:44;102185.50;;;23.29;38.07
62420;BME280;48460;51.616;5.426;2023-05-23T12:59:10;102191.63;;;23.73;36.44
62420;BME280;48460;51.616;5.426;2023-05-23T13:01:35;102182.97;;;23.69;35.24
62420;BME280;48460;51.616;5.426;2023-05-23T13:04:04;102186.03;;;23.23;35.59
62420;BME280;48460;51.616;5.426;2023-05-23T13:06:30;102189.25;;;23.37;34.71
62420;BME280;48460;51.616;5.426;2023-05-23T13:08:56;102179.78;;;23.01;35.58
62420;BME280;48460;51.616;5.426;2023-05-23T13:11:22;102176.28;;;22.46;36.88
62420;BME280;48460;51.616;5.426;2023-05-23T13:13:49;102174.91;;;22.06;38.34
62420;BME280;48460;51.616;5.426;2023-05-23T13:16:17;102187.56;;;21.59;39.37
62420;BME280;48460;51.616;5.426;2023-05-23T13:18:43;102187.13;;;21.42;40.42
62420;BME280;48460;51.616;5.426;2023-05-23T13:21:09;102179.25;;;21.16;40.54
62420;BME280;48460;51.616;5.426;2023-05-23T13:23:35;102175.78;;;21.27;41.70
62420;BME280;48460;51.616;5.426;2023-05-23T13:26:03;102177.50;;;22.08;40.25